Asheville Regional Airport
KAVL : now visible

Airfield :











YOU CAN JOIN US ON...

 
LOGIN :

Register | Disclaimer

   EN    FR    IT 

 









Legend :    VFR   Marginal VFR   IFR   Intensive IFR   Very Intensive IFR
Visi :
Ceiling :
>= 8 km
>= 3000ft
5 to 8 km
1000 to 3000 ft
1500m to 5 km
500 to 1000 ft
800 to 1500m
200 to 500 ft
< 800m
< 200 ft
Symbols :   Thunderstorms  Fog  Heavy snow  Heavy precipitations  Wind > 20 kt







- Airport Elevation : 2165 ft
- IATA code : AVL


KAVL - Asheville Regional

CURRENT METAR :
  • 201554Z 00000KT 10SM CLR 20/11 A3037 RMK AO2 SLP266 T02000111

EXPIRED METARs :
  • 201515Z VRB03KT 10SM SCT026 19/12 A3037 RMK AO2 T01940117
  • 201454Z 16005KT 10SM OVC026 18/12 A3038 RMK AO2 SLP270 T01780122 51007

TAF KAVL
Valid from the 20 at 13:00 until the 21 at 12:00 UTC


201321Z 2013/2112 VRB03KT P6SM SCT035 SCT070
TEMPO 2013/2014 2SM BR BKN002
FM201500 17004KT P6SM BKN050
FM210100 VRB02KT P6SM FEW250
FM210900 00000KT 5SM BR SCT003
No reported NOTAMs for that airfield.



MET'MAP, your aeronautical weather chart ! - Copyright ORBIFLY December 2007 - Disclaimer

ORBIFLY MET'MAP TEAM :

Programming & Development : Alexandra Zaïnal
Concept & Development : Baudouin d'Aumeries
Co-Development & Prog : Marc-Olivier Méhu
Technical & hardware support : Manuel Goepfert

Contact : metmap@orbifly.com




SOURCES & CREDITS :

   NOAA       Earth
Advisory